sensor_id;sensor_type;location;lat;lon;timestamp;P1;durP1;ratioP1;P2;durP2;ratioP2
58685;SDS011;44465;53.206;-6.106;2022-08-19T00:01:21;14.13;;;2.50;;
58685;SDS011;44465;53.206;-6.106;2022-08-19T00:03:47;10.32;;;2.78;;
58685;SDS011;44465;53.206;-6.106;2022-08-19T00:06:13;7.47;;;2.30;;
58685;SDS011;44465;53.206;-6.106;2022-08-19T00:08:39;8.07;;;2.27;;
58685;SDS011;44465;53.206;-6.106;2022-08-19T00:11:05;14.27;;;2.15;;
58685;SDS011;44465;53.206;-6.106;2022-08-19T00:13:31;9.27;;;2.13;;
58685;SDS011;44465;53.206;-6.106;2022-08-19T00:15:56;11.05;;;2.78;;
58685;SDS011;44465;53.206;-6.106;2022-08-19T00:18:24;8.43;;;2.13;;
58685;SDS011;44465;53.206;-6.106;2022-08-19T00:20:49;7.55;;;2.00;;
58685;SDS011;44465;53.206;-6.106;2022-08-19T00:23:15;8.50;;;1.90;;
58685;SDS011;44465;53.206;-6.106;2022-08-19T00:25:41;9.60;;;2.22;;
58685;SDS011;44465;53.206;-6.106;2022-08-19T00:28:06;6.18;;;2.40;;
58685;SDS011;44465;53.206;-6.106;2022-08-19T00:30:32;7.68;;;2.25;;
58685;SDS011;44465;53.206;-6.106;2022-08-19T00:32:57;16.05;;;2.60;;
58685;SDS011;44465;53.206;-6.106;2022-08-19T00:35:23;8.07;;;2.38;;
58685;SDS011;44465;53.206;-6.106;2022-08-19T00:37:50;14.48;;;2.42;;
58685;SDS011;44465;53.206;-6.106;2022-08-19T00:40:16;7.30;;;2.33;;
58685;SDS011;44465;53.206;-6.106;2022-08-19T00:42:44;6.13;;;1.85;;
58685;SDS011;44465;53.206;-6.106;2022-08-19T00:45:13;7.82;;;2.00;;
58685;SDS011;44465;53.206;-6.106;2022-08-19T00:47:43;9.13;;;2.13;;
58685;SDS011;44465;53.206;-6.106;2022-08-19T00:50:10;7.25;;;1.90;;
58685;SDS011;44465;53.206;-6.106;2022-08-19T00:52:40;7.13;;;2.67;;
58685;SDS011;44465;53.206;-6.106;2022-08-19T00:55:11;7.07;;;2.05;;
58685;SDS011;44465;53.206;-6.106;2022-08-19T00:57:42;5.80;;;2.03;;
58685;SDS011;44465;53.206;-6.106;2022-08-19T01:00:13;8.73;;;2.28;;
58685;SDS011;44465;53.206;-6.106;2022-08-19T01:02:41;9.05;;;2.60;;
58685;SDS011;44465;53.206;-6.106;2022-08-19T01:05:09;9.18;;;1.77;;
58685;SDS011;44465;53.206;-6.106;2022-08-19T01:07:38;6.32;;;2.05;;
58685;SDS011;44465;53.206;-6.106;2022-08-19T01:10:10;8.45;;;2.60;;
58685;SDS011;44465;53.206;-6.106;2022-08-19T01:12:37;4.88;;;2.03;;
58685;SDS011;44465;53.206;-6.106;2022-08-19T01:15:05;9.02;;;2.97;;
58685;SDS011;44465;53.206;-6.106;2022-08-19T01:17:34;6.70;;;2.30;;
58685;SDS011;44465;53.206;-6.106;2022-08-19T01:20:03;8.07;;;2.00;;
58685;SDS011;44465;53.206;-6.106;2022-08-19T01:22:37;8.93;;;2.28;;
58685;SDS011;44465;53.206;-6.106;2022-08-19T01:25:08;8.73;;;1.88;;
58685;SDS011;44465;53.206;-6.106;2022-08-19T01:27:40;7.10;;;2.25;;
58685;SDS011;44465;53.206;-6.106;2022-08-19T01:30:08;6.80;;;2.00;;
58685;SDS011;44465;53.206;-6.106;2022-08-19T01:32:35;5.22;;;2.13;;
58685;SDS011;44465;53.206;-6.106;2022-08-19T01:35:02;5.80;;;2.10;;
58685;SDS011;44465;53.206;-6.106;2022-08-19T01:37:28;9.02;;;2.00;;
58685;SDS011;44465;53.206;-6.106;2022-08-19T01:39:55;6.82;;;2.33;;
58685;SDS011;44465;53.206;-6.106;2022-08-19T01:42:21;5.03;;;2.00;;
58685;SDS011;44465;53.206;-6.106;2022-08-19T01:44:47;6.13;;;2.00;;
58685;SDS011;44465;53.206;-6.106;2022-08-19T01:47:13;8.83;;;2.27;;
58685;SDS011;44465;53.206;-6.106;2022-08-19T01:49:39;6.88;;;2.38;;
58685;SDS011;44465;53.206;-6.106;2022-08-19T01:52:05;7.13;;;1.98;;
58685;SDS011;44465;53.206;-6.106;2022-08-19T01:54:31;7.40;;;2.70;;
58685;SDS011;44465;53.206;-6.106;2022-08-19T01:56:59;6.93;;;2.28;;
58685;SDS011;44465;53.206;-6.106;2022-08-19T01:59:28;9.18;;;2.03;;
58685;SDS011;44465;53.206;-6.106;2022-08-19T02:01:55;6.57;;;1.90;;
58685;SDS011;44465;53.206;-6.106;2022-08-19T02:04:20;5.57;;;1.95;;
58685;SDS011;44465;53.206;-6.106;2022-08-19T02:06:46;5.43;;;2.20;;
58685;SDS011;44465;53.206;-6.106;2022-08-19T02:09:13;8.13;;;2.40;;
58685;SDS011;44465;53.206;-6.106;2022-08-19T02:11:38;7.50;;;2.40;;
58685;SDS011;44465;53.206;-6.106;2022-08-19T02:14:05;9.75;;;2.33;;
58685;SDS011;44465;53.206;-6.106;2022-08-19T02:16:32;4.82;;;2.00;;
58685;SDS011;44465;53.206;-6.106;2022-08-19T02:18:58;6.10;;;2.58;;
58685;SDS011;44465;53.206;-6.106;2022-08-19T02:21:27;6.20;;;2.20;;
58685;SDS011;44465;53.206;-6.106;2022-08-19T02:23:53;10.15;;;2.30;;
58685;SDS011;44465;53.206;-6.106;2022-08-19T02:26:20;9.40;;;2.20;;
58685;SDS011;44465;53.206;-6.106;2022-08-19T02:28:46;5.75;;;1.80;;
58685;SDS011;44465;53.206;-6.106;2022-08-19T02:31:14;5.97;;;1.80;;
58685;SDS011;44465;53.206;-6.106;2022-08-19T02:33:41;8.32;;;2.33;;
58685;SDS011;44465;53.206;-6.106;2022-08-19T02:36:07;6.95;;;1.73;;
58685;SDS011;44465;53.206;-6.106;2022-08-19T02:38:34;3.90;;;1.60;;
58685;SDS011;44465;53.206;-6.106;2022-08-19T02:41:01;6.40;;;2.08;;
58685;SDS011;44465;53.206;-6.106;2022-08-19T02:43:30;8.20;;;1.95;;
58685;SDS011;44465;53.206;-6.106;2022-08-19T02:45:57;7.80;;;2.75;;
58685;SDS011;44465;53.206;-6.106;2022-08-19T02:48:23;7.07;;;1.90;;
58685;SDS011;44465;53.206;-6.106;2022-08-19T02:50:50;5.72;;;2.30;;
58685;SDS011;44465;53.206;-6.106;2022-08-19T02:53:24;7.65;;;2.20;;
58685;SDS011;44465;53.206;-6.106;2022-08-19T02:55:52;7.18;;;2.45;;
58685;SDS011;44465;53.206;-6.106;2022-08-19T02:58:20;4.70;;;1.90;;
58685;SDS011;44465;53.206;-6.106;2022-08-19T03:00:47;6.40;;;2.22;;
58685;SDS011;44465;53.206;-6.106;2022-08-19T03:03:15;4.00;;;1.80;;
58685;SDS011;44465;53.206;-6.106;2022-08-19T03:05:40;7.10;;;1.98;;
58685;SDS011;44465;53.206;-6.106;2022-08-19T03:08:07;7.32;;;1.80;;
58685;SDS011;44465;53.206;-6.106;2022-08-19T03:10:44;4.57;;;1.55;;
58685;SDS011;44465;53.206;-6.106;2022-08-19T03:13:14;6.40;;;2.30;;
58685;SDS011;44465;53.206;-6.106;2022-08-19T03:15:42;7.47;;;2.05;;
58685;SDS011;44465;53.206;-6.106;2022-08-19T03:18:10;3.90;;;1.95;;
58685;SDS011;44465;53.206;-6.106;2022-08-19T03:20:40;4.70;;;1.95;;
58685;SDS011;44465;53.206;-6.106;2022-08-19T03:23:10;6.55;;;1.70;;
58685;SDS011;44465;53.206;-6.106;2022-08-19T03:28:08;4.53;;;1.55;;
58685;SDS011;44465;53.206;-6.106;2022-08-19T03:30:35;3.17;;;1.48;;
58685;SDS011;44465;53.206;-6.106;2022-08-19T03:33:00;5.55;;;2.17;;
58685;SDS011;44465;53.206;-6.106;2022-08-19T03:35:27;7.05;;;1.77;;
58685;SDS011;44465;53.206;-6.106;2022-08-19T03:37:52;6.57;;;1.60;;
58685;SDS011;44465;53.206;-6.106;2022-08-19T03:40:18;3.75;;;2.00;;
58685;SDS011;44465;53.206;-6.106;2022-08-19T03:42:44;5.97;;;2.13;;
58685;SDS011;44465;53.206;-6.106;2022-08-19T03:45:11;4.88;;;1.75;;
58685;SDS011;44465;53.206;-6.106;2022-08-19T03:47:37;5.13;;;1.90;;
58685;SDS011;44465;53.206;-6.106;2022-08-19T03:50:03;3.00;;;1.50;;
58685;SDS011;44465;53.206;-6.106;2022-08-19T03:52:29;3.83;;;1.90;;
58685;SDS011;44465;53.206;-6.106;2022-08-19T03:54:55;5.28;;;1.70;;
58685;SDS011;44465;53.206;-6.106;2022-08-19T03:57:21;4.97;;;1.60;;
58685;SDS011;44465;53.206;-6.106;2022-08-19T03:59:46;4.63;;;1.60;;
58685;SDS011;44465;53.206;-6.106;2022-08-19T04:02:12;6.05;;;1.67;;
58685;SDS011;44465;53.206;-6.106;2022-08-19T04:04:38;3.80;;;1.60;;
58685;SDS011;44465;53.206;-6.106;2022-08-19T04:07:06;4.70;;;1.63;;
58685;SDS011;44465;53.206;-6.106;2022-08-19T04:09:34;5.70;;;1.95;;
58685;SDS011;44465;53.206;-6.106;2022-08-19T04:12:02;5.47;;;1.60;;
58685;SDS011;44465;53.206;-6.106;2022-08-19T04:14:30;9.38;;;1.80;;
58685;SDS011;44465;53.206;-6.106;2022-08-19T04:16:57;5.88;;;1.80;;
58685;SDS011;44465;53.206;-6.106;2022-08-19T04:19:23;5.55;;;1.75;;
58685;SDS011;44465;53.206;-6.106;2022-08-19T04:21:51;5.13;;;1.90;;
58685;SDS011;44465;53.206;-6.106;2022-08-19T04:24:18;3.05;;;1.67;;
58685;SDS011;44465;53.206;-6.106;2022-08-19T04:26:46;4.53;;;1.70;;
58685;SDS011;44465;53.206;-6.106;2022-08-19T04:29:17;3.92;;;1.30;;
58685;SDS011;44465;53.206;-6.106;2022-08-19T04:31:46;3.97;;;1.77;;
58685;SDS011;44465;53.206;-6.106;2022-08-19T04:34:14;4.13;;;1.70;;
58685;SDS011;44465;53.206;-6.106;2022-08-19T04:36:42;3.97;;;1.60;;
58685;SDS011;44465;53.206;-6.106;2022-08-19T04:39:12;4.40;;;1.50;;
58685;SDS011;44465;53.206;-6.106;2022-08-19T04:41:41;6.60;;;2.13;;
58685;SDS011;44465;53.206;-6.106;2022-08-19T04:44:25;4.63;;;1.25;;
58685;SDS011;44465;53.206;-6.106;2022-08-19T04:46:51;3.53;;;1.30;;
58685;SDS011;44465;53.206;-6.106;2022-08-19T04:49:19;4.15;;;1.65;;
58685;SDS011;44465;53.206;-6.106;2022-08-19T04:51:47;3.42;;;1.38;;
58685;SDS011;44465;53.206;-6.106;2022-08-19T04:54:13;5.13;;;1.83;;
58685;SDS011;44465;53.206;-6.106;2022-08-19T04:56:40;4.97;;;2.37;;
58685;SDS011;44465;53.206;-6.106;2022-08-19T04:59:05;2.50;;;1.33;;
58685;SDS011;44465;53.206;-6.106;2022-08-19T05:01:32;3.63;;;1.35;;
58685;SDS011;44465;53.206;-6.106;2022-08-19T05:03:59;3.95;;;1.75;;
58685;SDS011;44465;53.206;-6.106;2022-08-19T05:06:27;4.57;;;1.75;;
58685;SDS011;44465;53.206;-6.106;2022-08-19T05:08:53;3.35;;;1.52;;
58685;SDS011;44465;53.206;-6.106;2022-08-19T05:11:25;3.95;;;1.25;;
58685;SDS011;44465;53.206;-6.106;2022-08-19T05:13:53;4.13;;;1.52;;
58685;SDS011;44465;53.206;-6.106;2022-08-19T05:16:20;4.13;;;1.80;;
58685;SDS011;44465;53.206;-6.106;2022-08-19T05:21:31;7.32;;;2.05;;
58685;SDS011;44465;53.206;-6.106;2022-08-19T05:24:17;7.93;;;1.85;;
58685;SDS011;44465;53.206;-6.106;2022-08-19T05:26:44;4.60;;;1.25;;
58685;SDS011;44465;53.206;-6.106;2022-08-19T05:29:12;3.78;;;1.35;;
58685;SDS011;44465;53.206;-6.106;2022-08-19T05:31:42;3.42;;;1.23;;
58685;SDS011;44465;53.206;-6.106;2022-08-19T05:34:09;3.80;;;1.65;;
58685;SDS011;44465;53.206;-6.106;2022-08-19T05:36:39;3.88;;;1.40;;
58685;SDS011;44465;53.206;-6.106;2022-08-19T05:39:09;5.28;;;1.65;;
58685;SDS011;44465;53.206;-6.106;2022-08-19T05:41:37;4.35;;;1.27;;
58685;SDS011;44465;53.206;-6.106;2022-08-19T05:44:07;5.43;;;1.50;;
58685;SDS011;44465;53.206;-6.106;2022-08-19T05:46:34;3.45;;;1.08;;
58685;SDS011;44465;53.206;-6.106;2022-08-19T05:49:00;5.22;;;1.27;;
58685;SDS011;44465;53.206;-6.106;2022-08-19T05:51:26;2.92;;;1.45;;
58685;SDS011;44465;53.206;-6.106;2022-08-19T05:53:52;4.95;;;1.23;;
58685;SDS011;44465;53.206;-6.106;2022-08-19T05:56:17;3.80;;;1.27;;
58685;SDS011;44465;53.206;-6.106;2022-08-19T05:58:44;4.60;;;1.33;;
58685;SDS011;44465;53.206;-6.106;2022-08-19T06:01:11;2.83;;;1.27;;
58685;SDS011;44465;53.206;-6.106;2022-08-19T06:03:39;9.50;;;1.63;;
58685;SDS011;44465;53.206;-6.106;2022-08-19T06:06:06;5.65;;;1.40;;
58685;SDS011;44465;53.206;-6.106;2022-08-19T06:08:33;6.10;;;1.60;;
58685;SDS011;44465;53.206;-6.106;2022-08-19T06:11:11;3.75;;;1.20;;
58685;SDS011;44465;53.206;-6.106;2022-08-19T06:13:39;7.65;;;1.50;;
58685;SDS011;44465;53.206;-6.106;2022-08-19T06:16:04;11.52;;;1.60;;
58685;SDS011;44465;53.206;-6.106;2022-08-19T06:18:30;4.75;;;1.40;;
58685;SDS011;44465;53.206;-6.106;2022-08-19T06:20:56;13.20;;;2.55;;
58685;SDS011;44465;53.206;-6.106;2022-08-19T06:23:22;9.23;;;1.50;;
58685;SDS011;44465;53.206;-6.106;2022-08-19T06:25:47;8.32;;;2.42;;
58685;SDS011;44465;53.206;-6.106;2022-08-19T06:28:13;8.63;;;1.50;;
58685;SDS011;44465;53.206;-6.106;2022-08-19T06:30:38;6.25;;;1.58;;
58685;SDS011;44465;53.206;-6.106;2022-08-19T06:33:04;5.50;;;1.25;;
58685;SDS011;44465;53.206;-6.106;2022-08-19T06:35:29;7.20;;;1.35;;
58685;SDS011;44465;53.206;-6.106;2022-08-19T06:37:56;17.13;;;2.17;;
58685;SDS011;44465;53.206;-6.106;2022-08-19T06:40:21;9.25;;;2.20;;
58685;SDS011;44465;53.206;-6.106;2022-08-19T06:42:47;6.22;;;1.50;;
58685;SDS011;44465;53.206;-6.106;2022-08-19T06:45:13;7.93;;;1.67;;
58685;SDS011;44465;53.206;-6.106;2022-08-19T06:47:39;6.95;;;1.58;;
58685;SDS011;44465;53.206;-6.106;2022-08-19T06:50:05;9.35;;;1.55;;
58685;SDS011;44465;53.206;-6.106;2022-08-19T06:52:33;7.88;;;1.80;;
58685;SDS011;44465;53.206;-6.106;2022-08-19T06:55:00;8.40;;;1.85;;
58685;SDS011;44465;53.206;-6.106;2022-08-19T06:57:26;7.75;;;1.55;;
58685;SDS011;44465;53.206;-6.106;2022-08-19T06:59:56;5.43;;;1.20;;
58685;SDS011;44465;53.206;-6.106;2022-08-19T07:02:21;9.88;;;1.50;;
58685;SDS011;44465;53.206;-6.106;2022-08-19T07:04:51;8.95;;;1.55;;
58685;SDS011;44465;53.206;-6.106;2022-08-19T07:07:17;3.78;;;1.15;;
58685;SDS011;44465;53.206;-6.106;2022-08-19T07:09:43;4.57;;;1.13;;
58685;SDS011;44465;53.206;-6.106;2022-08-19T07:12:11;6.97;;;1.60;;
58685;SDS011;44465;53.206;-6.106;2022-08-19T07:14:39;5.78;;;1.40;;
58685;SDS011;44465;53.206;-6.106;2022-08-19T07:17:06;6.80;;;1.83;;
58685;SDS011;44465;53.206;-6.106;2022-08-19T07:19:35;4.95;;;1.50;;
58685;SDS011;44465;53.206;-6.106;2022-08-19T07:22:02;5.97;;;1.40;;
58685;SDS011;44465;53.206;-6.106;2022-08-19T07:24:30;5.05;;;1.30;;
58685;SDS011;44465;53.206;-6.106;2022-08-19T07:26:56;3.28;;;1.33;;
58685;SDS011;44465;53.206;-6.106;2022-08-19T07:29:26;5.13;;;1.20;;
58685;SDS011;44465;53.206;-6.106;2022-08-19T07:31:53;3.55;;;1.33;;
58685;SDS011;44465;53.206;-6.106;2022-08-19T07:34:24;3.80;;;1.33;;
58685;SDS011;44465;53.206;-6.106;2022-08-19T07:36:51;5.43;;;1.33;;
58685;SDS011;44465;53.206;-6.106;2022-08-19T07:39:19;6.00;;;1.63;;
58685;SDS011;44465;53.206;-6.106;2022-08-19T07:41:47;6.80;;;1.38;;
58685;SDS011;44465;53.206;-6.106;2022-08-19T07:44:14;4.88;;;1.60;;
58685;SDS011;44465;53.206;-6.106;2022-08-19T07:46:41;3.30;;;1.00;;
58685;SDS011;44465;53.206;-6.106;2022-08-19T07:49:10;1.77;;;0.77;;
58685;SDS011;44465;53.206;-6.106;2022-08-19T07:51:42;2.70;;;1.05;;
58685;SDS011;44465;53.206;-6.106;2022-08-19T07:54:09;4.93;;;1.10;;
58685;SDS011;44465;53.206;-6.106;2022-08-19T07:56:34;5.13;;;1.30;;
58685;SDS011;44465;53.206;-6.106;2022-08-19T07:59:00;3.90;;;1.35;;
58685;SDS011;44465;53.206;-6.106;2022-08-19T08:01:26;4.45;;;1.20;;
58685;SDS011;44465;53.206;-6.106;2022-08-19T08:03:53;3.10;;;0.88;;
58685;SDS011;44465;53.206;-6.106;2022-08-19T08:06:40;3.75;;;1.08;;
58685;SDS011;44465;53.206;-6.106;2022-08-19T08:09:27;5.13;;;1.38;;
58685;SDS011;44465;53.206;-6.106;2022-08-19T08:11:57;2.97;;;1.08;;
58685;SDS011;44465;53.206;-6.106;2022-08-19T08:14:43;1.83;;;1.08;;
58685;SDS011;44465;53.206;-6.106;2022-08-19T08:17:15;2.30;;;0.82;;
58685;SDS011;44465;53.206;-6.106;2022-08-19T08:19:42;3.97;;;1.13;;
58685;SDS011;44465;53.206;-6.106;2022-08-19T08:22:09;3.92;;;0.80;;
58685;SDS011;44465;53.206;-6.106;2022-08-19T08:24:55;2.50;;;0.90;;
58685;SDS011;44465;53.206;-6.106;2022-08-19T08:27:23;1.98;;;0.73;;
58685;SDS011;44465;53.206;-6.106;2022-08-19T08:29:49;2.08;;;0.73;;
58685;SDS011;44465;53.206;-6.106;2022-08-19T08:32:15;3.33;;;0.88;;
58685;SDS011;44465;53.206;-6.106;2022-08-19T08:34:41;2.70;;;1.10;;
58685;SDS011;44465;53.206;-6.106;2022-08-19T08:37:07;3.80;;;0.77;;
58685;SDS011;44465;53.206;-6.106;2022-08-19T08:39:32;2.63;;;0.80;;
58685;SDS011;44465;53.206;-6.106;2022-08-19T08:42:17;2.90;;;0.85;;
58685;SDS011;44465;53.206;-6.106;2022-08-19T08:45:05;1.67;;;0.80;;
58685;SDS011;44465;53.206;-6.106;2022-08-19T08:47:40;3.78;;;0.75;;
58685;SDS011;44465;53.206;-6.106;2022-08-19T08:50:16;4.82;;;1.20;;
58685;SDS011;44465;53.206;-6.106;2022-08-19T08:52:51;3.13;;;0.93;;
58685;SDS011;44465;53.206;-6.106;2022-08-19T08:55:24;2.72;;;1.02;;
58685;SDS011;44465;53.206;-6.106;2022-08-19T08:58:12;1.83;;;0.82;;
58685;SDS011;44465;53.206;-6.106;2022-08-19T09:00:45;1.75;;;0.73;;
58685;SDS011;44465;53.206;-6.106;2022-08-19T09:03:17;3.53;;;1.15;;
58685;SDS011;44465;53.206;-6.106;2022-08-19T09:08:33;1.98;;;1.00;;
58685;SDS011;44465;53.206;-6.106;2022-08-19T09:14:37;3.15;;;1.00;;
58685;SDS011;44465;53.206;-6.106;2022-08-19T09:16:57;1.73;;;0.85;;
58685;SDS011;44465;53.206;-6.106;2022-08-19T09:19:23;1.25;;;0.70;;
58685;SDS011;44465;53.206;-6.106;2022-08-19T09:21:48;3.10;;;0.90;;
58685;SDS011;44465;53.206;-6.106;2022-08-19T09:24:15;5.13;;;1.00;;
58685;SDS011;44465;53.206;-6.106;2022-08-19T09:26:41;2.15;;;0.68;;
58685;SDS011;44465;53.206;-6.106;2022-08-19T09:31:35;2.83;;;0.90;;
58685;SDS011;44465;53.206;-6.106;2022-08-19T09:34:00;1.52;;;0.60;;
58685;SDS011;44465;53.206;-6.106;2022-08-19T09:36:28;2.35;;;1.08;;
58685;SDS011;44465;53.206;-6.106;2022-08-19T09:38:57;3.30;;;0.90;;
58685;SDS011;44465;53.206;-6.106;2022-08-19T09:41:25;2.08;;;0.60;;
58685;SDS011;44465;53.206;-6.106;2022-08-19T09:43:52;1.70;;;0.70;;
58685;SDS011;44465;53.206;-6.106;2022-08-19T09:46:20;1.45;;;0.80;;
58685;SDS011;44465;53.206;-6.106;2022-08-19T09:48:47;3.63;;;0.75;;
58685;SDS011;44465;53.206;-6.106;2022-08-19T09:51:17;5.45;;;0.90;;
58685;SDS011;44465;53.206;-6.106;2022-08-19T09:53:48;3.50;;;1.08;;
58685;SDS011;44465;53.206;-6.106;2022-08-19T09:56:16;1.75;;;0.82;;
58685;SDS011;44465;53.206;-6.106;2022-08-19T09:58:42;3.17;;;0.63;;
58685;SDS011;44465;53.206;-6.106;2022-08-19T10:01:08;3.05;;;1.17;;
58685;SDS011;44465;53.206;-6.106;2022-08-19T10:03:34;3.67;;;1.00;;
58685;SDS011;44465;53.206;-6.106;2022-08-19T10:06:02;1.77;;;0.60;;
58685;SDS011;44465;53.206;-6.106;2022-08-19T10:08:30;2.35;;;0.80;;
58685;SDS011;44465;53.206;-6.106;2022-08-19T10:10:59;1.45;;;0.63;;
58685;SDS011;44465;53.206;-6.106;2022-08-19T10:13:28;1.80;;;0.80;;
58685;SDS011;44465;53.206;-6.106;2022-08-19T10:16:01;1.50;;;0.60;;
58685;SDS011;44465;53.206;-6.106;2022-08-19T10:18:32;3.90;;;1.00;;
58685;SDS011;44465;53.206;-6.106;2022-08-19T10:23:56;1.52;;;0.55;;
58685;SDS011;44465;53.206;-6.106;2022-08-19T10:26:25;2.45;;;1.33;;
58685;SDS011;44465;53.206;-6.106;2022-08-19T10:28:55;2.10;;;0.60;;
58685;SDS011;44465;53.206;-6.106;2022-08-19T10:31:23;1.60;;;0.70;;
58685;SDS011;44465;53.206;-6.106;2022-08-19T10:33:51;1.60;;;1.25;;
58685;SDS011;44465;53.206;-6.106;2022-08-19T10:36:27;3.08;;;0.80;;
58685;SDS011;44465;53.206;-6.106;2022-08-19T10:38:55;3.50;;;0.90;;
58685;SDS011;44465;53.206;-6.106;2022-08-19T10:41:25;1.05;;;0.77;;
58685;SDS011;44465;53.206;-6.106;2022-08-19T10:43:54;1.75;;;0.80;;
58685;SDS011;44465;53.206;-6.106;2022-08-19T10:46:22;2.75;;;0.70;;
58685;SDS011;44465;53.206;-6.106;2022-08-19T10:48:49;5.57;;;1.10;;
58685;SDS011;44465;53.206;-6.106;2022-08-19T10:51:15;3.00;;;0.85;;
58685;SDS011;44465;53.206;-6.106;2022-08-19T10:53:59;5.18;;;1.38;;
58685;SDS011;44465;53.206;-6.106;2022-08-19T10:56:26;5.88;;;1.63;;
58685;SDS011;44465;53.206;-6.106;2022-08-19T10:59:12;5.82;;;1.67;;
58685;SDS011;44465;53.206;-6.106;2022-08-19T11:01:39;4.50;;;1.27;;
58685;SDS011;44465;53.206;-6.106;2022-08-19T11:06:35;4.80;;;1.65;;
58685;SDS011;44465;53.206;-6.106;2022-08-19T11:09:01;5.03;;;1.50;;
58685;SDS011;44465;53.206;-6.106;2022-08-19T11:11:28;4.78;;;1.60;;
58685;SDS011;44465;53.206;-6.106;2022-08-19T11:13:54;3.63;;;1.50;;
58685;SDS011;44465;53.206;-6.106;2022-08-19T11:16:20;5.72;;;1.50;;
58685;SDS011;44465;53.206;-6.106;2022-08-19T11:18:49;3.60;;;1.45;;
58685;SDS011;44465;53.206;-6.106;2022-08-19T11:21:21;3.65;;;1.33;;
58685;SDS011;44465;53.206;-6.106;2022-08-19T11:23:49;5.45;;;1.75;;
58685;SDS011;44465;53.206;-6.106;2022-08-19T11:28:42;2.33;;;1.63;;
58685;SDS011;44465;53.206;-6.106;2022-08-19T11:31:11;4.65;;;1.40;;
58685;SDS011;44465;53.206;-6.106;2022-08-19T11:33:42;4.45;;;1.40;;
58685;SDS011;44465;53.206;-6.106;2022-08-19T11:36:08;5.13;;;1.38;;
58685;SDS011;44465;53.206;-6.106;2022-08-19T11:38:34;4.60;;;1.50;;
58685;SDS011;44465;53.206;-6.106;2022-08-19T11:41:01;1.88;;;1.35;;
58685;SDS011;44465;53.206;-6.106;2022-08-19T11:43:30;5.25;;;1.92;;
58685;SDS011;44465;53.206;-6.106;2022-08-19T11:45:56;4.63;;;1.63;;
58685;SDS011;44465;53.206;-6.106;2022-08-19T11:48:23;4.90;;;2.17;;
58685;SDS011;44465;53.206;-6.106;2022-08-19T11:50:49;6.07;;;1.95;;
58685;SDS011;44465;53.206;-6.106;2022-08-19T11:53:16;5.15;;;1.75;;
58685;SDS011;44465;53.206;-6.106;2022-08-19T11:55:44;4.75;;;1.73;;
58685;SDS011;44465;53.206;-6.106;2022-08-19T11:58:11;5.13;;;1.60;;
58685;SDS011;44465;53.206;-6.106;2022-08-19T12:00:38;2.83;;;1.42;;
58685;SDS011;44465;53.206;-6.106;2022-08-19T12:03:04;6.07;;;1.67;;
58685;SDS011;44465;53.206;-6.106;2022-08-19T12:05:29;5.10;;;1.73;;
58685;SDS011;44465;53.206;-6.106;2022-08-19T12:07:55;5.18;;;1.75;;
58685;SDS011;44465;53.206;-6.106;2022-08-19T12:10:21;4.60;;;1.67;;
58685;SDS011;44465;53.206;-6.106;2022-08-19T12:12:47;5.97;;;1.75;;
58685;SDS011;44465;53.206;-6.106;2022-08-19T12:15:13;5.13;;;1.63;;
58685;SDS011;44465;53.206;-6.106;2022-08-19T12:17:39;5.55;;;1.60;;
58685;SDS011;44465;53.206;-6.106;2022-08-19T12:20:11;7.53;;;2.13;;
58685;SDS011;44465;53.206;-6.106;2022-08-19T12:22:42;2.95;;;1.50;;
58685;SDS011;44465;53.206;-6.106;2022-08-19T12:25:09;4.57;;;1.95;;
58685;SDS011;44465;53.206;-6.106;2022-08-19T12:27:36;4.72;;;1.90;;
58685;SDS011;44465;53.206;-6.106;2022-08-19T12:32:30;3.17;;;1.90;;
58685;SDS011;44465;53.206;-6.106;2022-08-19T12:34:55;5.75;;;2.00;;
58685;SDS011;44465;53.206;-6.106;2022-08-19T12:37:21;3.90;;;1.95;;
58685;SDS011;44465;53.206;-6.106;2022-08-19T12:39:46;4.97;;;2.10;;
58685;SDS011;44465;53.206;-6.106;2022-08-19T12:42:12;6.65;;;2.15;;
58685;SDS011;44465;53.206;-6.106;2022-08-19T12:44:40;3.72;;;2.45;;
58685;SDS011;44465;53.206;-6.106;2022-08-19T12:47:08;5.03;;;2.10;;
58685;SDS011;44465;53.206;-6.106;2022-08-19T12:49:35;8.05;;;1.88;;
58685;SDS011;44465;53.206;-6.106;2022-08-19T12:52:05;4.93;;;1.80;;
58685;SDS011;44465;53.206;-6.106;2022-08-19T12:54:33;6.55;;;2.08;;
58685;SDS011;44465;53.206;-6.106;2022-08-19T12:56:59;6.77;;;2.03;;
58685;SDS011;44465;53.206;-6.106;2022-08-19T12:59:25;6.53;;;2.42;;
58685;SDS011;44465;53.206;-6.106;2022-08-19T13:01:51;5.63;;;2.20;;
58685;SDS011;44465;53.206;-6.106;2022-08-19T13:04:17;7.20;;;2.40;;
58685;SDS011;44465;53.206;-6.106;2022-08-19T13:06:43;6.35;;;1.95;;
58685;SDS011;44465;53.206;-6.106;2022-08-19T13:09:08;3.45;;;1.92;;
58685;SDS011;44465;53.206;-6.106;2022-08-19T13:11:34;5.85;;;2.30;;
58685;SDS011;44465;53.206;-6.106;2022-08-19T13:14:00;9.93;;;3.05;;
58685;SDS011;44465;53.206;-6.106;2022-08-19T13:16:27;6.00;;;2.55;;
58685;SDS011;44465;53.206;-6.106;2022-08-19T13:18:54;5.97;;;2.00;;
58685;SDS011;44465;53.206;-6.106;2022-08-19T13:21:21;7.30;;;2.85;;
58685;SDS011;44465;53.206;-6.106;2022-08-19T13:23:49;4.72;;;1.83;;
58685;SDS011;44465;53.206;-6.106;2022-08-19T13:26:15;4.88;;;2.10;;
58685;SDS011;44465;53.206;-6.106;2022-08-19T13:28:41;7.40;;;2.23;;
58685;SDS011;44465;53.206;-6.106;2022-08-19T13:31:27;7.80;;;2.45;;
58685;SDS011;44465;53.206;-6.106;2022-08-19T13:34:13;4.43;;;2.28;;
58685;SDS011;44465;53.206;-6.106;2022-08-19T13:36:40;5.13;;;2.85;;
58685;SDS011;44465;53.206;-6.106;2022-08-19T13:39:06;5.25;;;2.03;;
58685;SDS011;44465;53.206;-6.106;2022-08-19T13:41:33;7.97;;;2.30;;
58685;SDS011;44465;53.206;-6.106;2022-08-19T13:43:59;5.28;;;2.40;;
58685;SDS011;44465;53.206;-6.106;2022-08-19T13:46:25;12.57;;;3.28;;
58685;SDS011;44465;53.206;-6.106;2022-08-19T13:48:52;11.65;;;3.00;;
58685;SDS011;44465;53.206;-6.106;2022-08-19T13:51:18;10.27;;;3.55;;
58685;SDS011;44465;53.206;-6.106;2022-08-19T13:53:43;9.98;;;4.18;;
58685;SDS011;44465;53.206;-6.106;2022-08-19T13:56:10;6.53;;;3.65;;
58685;SDS011;44465;53.206;-6.106;2022-08-19T13:58:40;10.20;;;4.05;;
58685;SDS011;44465;53.206;-6.106;2022-08-19T14:01:07;11.23;;;4.43;;
58685;SDS011;44465;53.206;-6.106;2022-08-19T14:03:33;10.20;;;3.55;;
58685;SDS011;44465;53.206;-6.106;2022-08-19T14:05:59;7.40;;;3.78;;
58685;SDS011;44465;53.206;-6.106;2022-08-19T14:08:25;9.02;;;3.55;;
58685;SDS011;44465;53.206;-6.106;2022-08-19T14:10:53;8.88;;;3.08;;
58685;SDS011;44465;53.206;-6.106;2022-08-19T14:13:21;5.25;;;2.55;;
58685;SDS011;44465;53.206;-6.106;2022-08-19T14:15:48;8.13;;;2.58;;
58685;SDS011;44465;53.206;-6.106;2022-08-19T14:18:15;9.05;;;3.33;;
58685;SDS011;44465;53.206;-6.106;2022-08-19T14:20:42;5.63;;;3.45;;
58685;SDS011;44465;53.206;-6.106;2022-08-19T14:23:08;4.90;;;2.35;;
58685;SDS011;44465;53.206;-6.106;2022-08-19T14:25:34;7.10;;;3.15;;
58685;SDS011;44465;53.206;-6.106;2022-08-19T14:27:59;4.80;;;2.40;;
58685;SDS011;44465;53.206;-6.106;2022-08-19T14:30:27;6.13;;;2.40;;
58685;SDS011;44465;53.206;-6.106;2022-08-19T14:32:55;5.90;;;2.20;;
58685;SDS011;44465;53.206;-6.106;2022-08-19T14:35:22;9.20;;;2.78;;
58685;SDS011;44465;53.206;-6.106;2022-08-19T14:37:48;15.98;;;2.60;;
58685;SDS011;44465;53.206;-6.106;2022-08-19T14:40:15;8.07;;;2.75;;
58685;SDS011;44465;53.206;-6.106;2022-08-19T14:42:45;5.22;;;1.85;;
58685;SDS011;44465;53.206;-6.106;2022-08-19T14:45:11;5.28;;;2.28;;
58685;SDS011;44465;53.206;-6.106;2022-08-19T14:47:38;5.20;;;2.20;;
58685;SDS011;44465;53.206;-6.106;2022-08-19T14:50:05;3.70;;;1.90;;
58685;SDS011;44465;53.206;-6.106;2022-08-19T14:52:32;3.08;;;1.75;;
58685;SDS011;44465;53.206;-6.106;2022-08-19T14:54:58;6.68;;;1.90;;
58685;SDS011;44465;53.206;-6.106;2022-08-19T14:57:23;5.78;;;1.80;;
58685;SDS011;44465;53.206;-6.106;2022-08-19T14:59:49;3.25;;;1.67;;
58685;SDS011;44465;53.206;-6.106;2022-08-19T15:02:14;2.08;;;1.55;;